Main page
METAR-TAF:

METAR-TAF

Airports :

Gwadar, Pakistan

Gwadar International Airport

latitude: 25-13-59N, longitude: 062-19-46E, elevation: 29 m

METAR: missing

Time: 01:36 (20:36 UTC)

Forecast

The report was made 5 hours and 6 minutes ago, at 15:30 UTC
Forecast valid from 30 at 18 UTC to 01 at 18 UTC
Wind 8 kt from the West/Southwest
Visibility: 3000 m
smoke
Temporary
from 01 at 00 UTC to 01 at 04 UTC
Wind 3 kt from variable directions
Visibility: 2000 m
Scattered clouds at a height of 2000 ft
mist
From 01 at 0400 UTC
Wind 5 kt from the South/Southwest with gusts up to 15 kt
Visibility: 4000 m
Scattered clouds at a height of 2000 ft
haze

TAF: OPGD 301530Z 3018/0118 25008KT 3000 FU NSC TEMPO 0100/0104 VRB03KT 2000 BR SCT020 FM010400 21005G15KT 4000 HZ SCT020

Weather observations and forecasts of more than 4000 airports (METAR and TAF reports).

The available stations are represented by yellow and red dots on the map.

Hover mouse over dot to see the name of the station.

Then click to see weather observations and forecasts.

To change the map : click on the green buttons with a black cross to zoom in, on the green button with a dash to zoom out, or on the green arrows for adjacent maps.


METAR-TAF: